Dixie — WDE5971 — position and weather

sailwx.info

Track history (hours):
 
Tides and Currents Weather Stations Pressure Air Temp Water Temp Dewpoint Dewpoint Depression Visibility Wind Speed Wind Dir Waves Ship Positions

Dixie

Owner: Fremont Tugboat Co, Seattle, WA. More information available from US FCC via Universal Licensing System and Coast Guard Vessel Documentation Center.

Last reported at 2017-Oct-18 19:16 UTC. Time now 2017-Oct-22 21:14 UTC.
Position N 47°39' W 122°22'.

Length 18 m; draft 3 m.

Type: Tug. MMSI: 367374040.

Date/timePositionNaut miles runAvg speedWind from/ knotsBaromVisibWave heightAir tempDewpointWater temp
2017-Oct-18 19:16N 47°39' W 122°22'1 4.9
2017-Oct-18 19:00N 47°39' W 122°21'2 0.1
2017-Oct-17 21:19N 47°40' W 122°23'2 7.1
2017-Oct-17 21:00N 47°39' W 122°21'2 4.4
2017-Oct-17 20:30N 47°40' W 122°23'0 0.1
2017-Oct-17 20:00N 47°40' W 122°24'3 5.5
2017-Oct-17 19:30N 47°39' W 122°20'1 1.4
2017-Oct-17 19:00N 47°39' W 122°21'2 4.0
2017-Oct-17 18:30N 47°40' W 122°23'1 2.6
2017-Oct-17 18:00N 47°39' W 122°22'1 0.8
2017-Oct-17 17:18N 47°40' W 122°23'0 0.9
2017-Oct-17 17:00N 47°39' W 122°22'0 0.8
2017-Oct-17 16:30N 47°40' W 122°23'2 4.2
2017-Oct-17 16:00N 47°39' W 122°20'0 0.5
2017-Oct-17 15:30N 47°39' W 122°20'  
2017-Oct-11 21:21N 47°39' W 122°21'0 0.4
2017-Oct-11 21:00N 47°39' W 122°21'0 0.0
2017-Oct-10 18:22N 47°39' W 122°21'  
Track history (hours):
 
Tides and Currents Weather Stations Pressure Air Temp Water Temp Dewpoint Dewpoint Depression Visibility Wind Speed Wind Dir Waves Ship Positions

Dixie

Owner: Fremont Tugboat Co, Seattle, WA. More information available from US FCC via Universal Licensing System and Coast Guard Vessel Documentation Center.

Last reported at 2017-Oct-18 19:16 UTC. Time now 2017-Oct-22 21:14 UTC.
Position N 47°39' W 122°22'.

Length 18 m; draft 3 m.

Type: Tug. MMSI: 367374040.

Date/timePositionNaut miles runAvg speedWind from/ knotsBaromVisibWave heightAir tempDewpointWater temp
2017-Oct-18 19:16N 47°39' W 122°22'1 4.9
2017-Oct-18 19:00N 47°39' W 122°21'2 0.1
2017-Oct-17 21:19N 47°40' W 122°23'2 7.1
2017-Oct-17 21:00N 47°39' W 122°21'2 4.4
2017-Oct-17 20:30N 47°40' W 122°23'0 0.1
2017-Oct-17 20:00N 47°40' W 122°24'3 5.5
2017-Oct-17 19:30N 47°39' W 122°20'1 1.4
2017-Oct-17 19:00N 47°39' W 122°21'2 4.0
2017-Oct-17 18:30N 47°40' W 122°23'1 2.6
2017-Oct-17 18:00N 47°39' W 122°22'1 0.8
2017-Oct-17 17:18N 47°40' W 122°23'0 0.9
2017-Oct-17 17:00N 47°39' W 122°22'0 0.8
2017-Oct-17 16:30N 47°40' W 122°23'2 4.2
2017-Oct-17 16:00N 47°39' W 122°20'0 0.5
2017-Oct-17 15:30N 47°39' W 122°20'  
2017-Oct-11 21:21N 47°39' W 122°21'0 0.4
2017-Oct-11 21:00N 47°39' W 122°21'0 0.0
2017-Oct-10 18:22N 47°39' W 122°21'  

Dump ship's entire track history